Latest Weather Observations for Parafield

IDS60801

Issued at 5:01 pm CST Tuesday 20 April 2021 (issued every 10 minutes, with the page automatically refreshed every 10 minutes)

About weather observations | Map of weather stations | Latest weather observations for SA | Other Formats
Station Details ID: 023013 Name: PARAFIELD AIRPORT Lat: -34.80 Lon: 138.63 Height: 9.5 m
Data from the previous 72 hours. | See also: Recent months at Parafield
Date/Time
CST
Temp
°C
App
Temp
°C
Dew
Point
°C
Rel
Hum
%
Delta-T
°C
Wind Press
QNH
hPa
Press
MSL
hPa
Rain since
9am
mm
Dir  Spd
km/h
Gust
km/h
Spd
kts
Gust
kts
20/05:00pm 16.2 10.6 3.6 43 5.8 SW 22 30 12 16 1017.4 1017.4 7.0
20/04:30pm 16.8 10.8 3.5 41 6.1 SW 24 32 13 17 1017.2 1017.2 7.0
20/04:00pm 17.3 11.0 3.9 41 6.3 SSW 26 33 14 18 1017.0 1017.0 7.0
20/03:30pm 16.5 11.4 6.1 50 5.0 SSW 22 30 12 16 1016.8 1016.8 7.0
20/03:00pm 18.8 13.4 6.3 44 6.2 SSW 24 39 13 21 1016.4 1016.4 7.0
20/02:30pm 18.9 14.2 6.1 43 6.3 SSW 20 26 11 14 1016.2 1016.2 7.0
20/02:00pm 18.4 12.1 7.5 49 5.5 SSW 30 37 16 20 1016.3 1016.3 7.0
20/01:30pm 18.3 13.9 8.8 54 4.9 SSW 22 33 12 18 1016.2 1016.2 7.0
20/01:00pm 16.7 12.0 9.1 61 3.9 S 24 35 13 19 1016.4 1016.4 7.0
20/12:30pm 16.2 11.0 10.3 68 3.1 S 28 35 15 19 1016.5 1016.5 7.0
20/12:00pm 16.9 12.5 10.5 66 3.4 S 24 33 13 18 1016.2 1016.2 7.0
20/11:30am 15.8 11.9 10.8 72 2.7 S 22 30 12 16 1016.2 1016.2 7.0
20/11:00am 15.6 12.9 13.6 88 1.1 S 20 32 11 17 1015.9 1015.9 7.0
20/10:30am 15.5 13.5 15.5 100 0.0 SSW 20 26 11 14 1015.4 1015.4 7.0
20/10:01am 15.0 14.2 15.0 100 0.0 WNW 13 19 7 10 1014.8 1014.8 7.0
20/10:00am 15.0 14.2 15.0 100 0.0 WNW 13 19 7 10 1014.8 1014.8 7.0
20/09:31am 15.2 11.1 12.7 85 1.4 WNW 26 54 14 29 1014.6 1014.6 1.6
20/09:30am 15.8 12.2 13.1 84 1.5 WNW 24 50 13 27 1014.7 1014.7 1.0
20/09:00am 14.9 12.4 10.9 77 2.1 N 15 20 8 11 1014.4 1014.4 0.0
20/08:30am 13.8 11.2 9.5 75 2.2 N 13 17 7 9 1014.5 1014.5 0.0
20/08:00am 12.1 9.3 8.4 78 1.8 N 13 17 7 9 1014.5 1014.5 0.0
20/07:30am 11.7 9.3 8.6 81 1.5 N 11 17 6 9 1014.2 1014.2 0.0
20/07:00am 11.4 8.6 8.4 82 1.5 N 13 20 7 11 1014.1 1014.1 0.0
20/06:30am 9.8 7.4 7.1 83 1.3 N 9 13 5 7 1014.0 1014.0 0.0
20/06:00am 10.0 6.9 7.3 83 1.3 N 13 15 7 8 1013.7 1013.7 0.0
20/05:30am 9.6 6.5 7.2 85 1.1 NNE 13 15 7 8 1013.8 1013.8 0.0
20/05:00am 9.3 7.2 6.7 84 1.2 NE 7 9 4 5 1013.8 1013.8 0.0
20/04:30am 10.1 8.3 7.2 82 1.4 N 6 7 3 4 1013.8 1013.8 0.0
20/04:00am 10.1 6.8 6.6 79 1.6 N 13 13 7 7 1013.7 1013.7 0.0
20/03:30am 11.2 7.7 7.3 77 1.9 N 15 17 8 9 1013.7 1013.7 0.0
20/03:00am 10.5 7.4 7.2 80 1.6 N 13 13 7 7 1013.8 1013.8 0.0
20/02:30am 10.5 7.3 7.0 79 1.7 NNE 13 15 7 8 1014.0 1014.0 0.0
20/02:00am 10.5 7.1 7.6 82 1.4 NNE 15 19 8 10 1014.1 1014.1 0.0
20/01:30am 9.3 6.8 6.7 84 1.2 NNE 9 11 5 6 1014.6 1014.6 0.0
20/01:00am 10.1 8.1 7.3 83 1.3 NNE 7 9 4 5 1014.8 1014.8 0.0
20/12:30am 10.0 8.0 7.3 83 1.3 NNE 7 7 4 4 1014.9 1014.9 0.0
20/12:00am 9.6 7.6 6.9 83 1.3 NNE 7 9 4 5 1014.9 1014.9 0.0
 
Date/Time
CST
Temp
°C
App
Temp
°C
Dew
Point
°C
Rel
Hum
%
Delta-T
°C
Wind Press
QNH
hPa
Press
MSL
hPa
Rain since
9am
mm
Dir  Spd
km/h
Gust
km/h
Spd
kts
Gust
kts
19/11:30pm 10.4 8.7 7.5 82 1.4 ENE 6 9 3 5 1015.1 1015.1 0.0
19/11:00pm 10.0 9.4 7.3 83 1.3 CALM 0 0 0 0 1015.4 1015.4 0.0
19/10:30pm 10.4 8.9 6.7 78 1.7 NE 4 6 2 3 1015.5 1015.5 0.0
19/10:00pm 11.0 9.0 7.3 78 1.8 NE 7 7 4 4 1015.4 1015.4 0.0
19/09:30pm 11.6 9.7 7.7 77 1.9 NE 7 9 4 5 1015.4 1015.4 0.0
19/09:00pm 11.5 8.9 6.2 70 2.5 NE 9 9 5 5 1015.6 1015.6 0.0
19/08:30pm 12.0 9.7 7.3 73 2.3 NE 9 9 5 5 1015.6 1015.6 0.0
19/08:00pm 12.4 10.0 7.1 70 2.6 NE 9 9 5 5 1015.6 1015.6 0.0
19/07:30pm 13.7 11.7 7.2 65 3.2 E 7 9 4 5 1015.6 1015.6 0.0
19/07:00pm 14.7 14.0 7.0 60 3.8 CALM 0 6 0 3 1015.7 1015.7 0.0
19/06:30pm 15.4 14.3 6.9 57 4.2 SSW 2 7 1 4 1015.7 1015.7 0.0
19/06:00pm 16.8 14.8 7.2 53 4.8 NW 7 9 4 5 1015.6 1015.6 0.0
19/05:30pm 18.4 15.1 6.6 46 5.9 WNW 13 15 7 8 1015.6 1015.6 0.0
19/05:00pm 19.5 15.1 6.6 43 6.5 WNW 19 26 10 14 1015.5 1015.5 0.0
19/04:30pm 20.0 15.4 6.7 42 6.7 NW 20 26 11 14 1015.5 1015.5 0.0
19/04:00pm 20.4 15.8 6.7 41 6.9 WNW 20 26 11 14 1015.8 1015.8 0.0
19/03:30pm 20.7 16.1 6.6 40 7.1 NW 20 30 11 16 1015.8 1015.8 0.0
19/03:00pm 20.7 16.7 8.4 45 6.4 WNW 19 30 10 16 1015.9 1015.9 0.0
19/02:30pm 20.8 15.4 7.8 43 6.7 WNW 26 37 14 20 1015.9 1015.9 0.0
19/02:00pm 19.8 15.3 8.5 48 5.9 WNW 22 32 12 17 1016.2 1016.2 0.0
19/01:30pm 20.7 16.3 9.0 47 6.2 NW 22 28 12 15 1016.5 1016.5 0.0
19/01:00pm 19.3 16.5 10.0 55 5.0 NW 15 20 8 11 1017.3 1017.3 0.0
19/12:30pm 18.8 16.1 10.4 58 4.5 NW 15 20 8 11 1018.0 1018.0 0.0
19/12:00pm 18.0 14.7 9.4 57 4.5 NNW 17 24 9 13 1018.6 1018.6 0.0
19/11:30am 18.3 14.9 10.4 60 4.2 NNW 19 24 10 13 1019.0 1019.0 0.0
19/11:00am 17.6 14.4 9.8 60 4.1 N 17 22 9 12 1019.3 1019.3 0.0
19/10:30am 16.5 13.9 9.2 62 3.8 N 13 19 7 10 1019.6 1019.6 0.0
19/10:00am 16.4 13.8 9.3 63 3.7 NNE 13 17 7 9 1019.8 1019.8 0.0
19/09:30am 15.7 13.1 9.4 66 3.2 NNE 13 17 7 9 1020.1 1020.1 0.0
19/09:00am 15.0 12.6 10.2 73 2.5 NE 13 17 7 9 1020.1 1020.1 0.0
19/08:30am 13.7 11.4 10.5 81 1.7 NE 13 17 7 9 1020.3 1020.3 0.0
19/08:00am 13.5 12.3 9.7 78 1.9 N 6 9 3 5 1020.5 1020.5 0.0
19/07:30am 13.6 12.2 9.5 76 2.1 N 7 9 4 5 1020.0 1020.0 0.0
19/07:00am 13.5 11.0 9.6 77 2.0 N 13 15 7 8 1019.8 1019.8 0.0
19/06:30am 13.2 11.1 9.6 79 1.8 NNE 11 13 6 7 1019.8 1019.8 0.0
19/06:00am 13.0 10.8 9.4 79 1.8 NNE 11 13 6 7 1019.9 1019.9 0.0
19/05:30am 12.8 10.2 9.4 80 1.7 NNE 13 17 7 9 1019.9 1019.9 0.0
19/05:00am 12.4 9.5 9.6 83 1.4 NNE 15 19 8 10 1019.7 1019.7 0.0
19/04:30am 10.7 9.3 9.6 93 0.6 NNE 7 9 4 5 1019.8 1019.8 0.0
19/04:00am 10.5 8.9 8.8 89 0.8 NNE 7 9 4 5 1019.7 1019.7 0.0
19/03:30am 10.9 9.0 10.4 97 0.3 NNE 11 11 6 6 1019.7 1019.7 0.0
19/03:00am 11.7 9.9 9.3 85 1.2 NNE 9 9 5 5 1020.0 1020.0 0.0
19/02:30am 12.6 11.5 10.5 87 1.1 ESE 7 7 4 4 1020.3 1020.3 0.0
19/02:00am 12.2 10.5 9.8 85 1.2 NNE 9 9 5 5 1020.6 1020.6 0.0
19/01:30am 13.5 12.2 9.9 79 1.8 NE 7 7 4 4 1021.1 1021.1 0.0
19/01:00am 13.9 13.1 10.9 82 1.6 ENE 6 6 3 3 1021.3 1021.3 0.0
19/12:30am 14.0 12.5 10.6 80 1.8 ENE 9 9 5 5 1021.4 1021.4 0.0
19/12:00am 15.1 13.8 11.1 77 2.1 N 9 13 5 7 1021.8 1021.7 0.0
 
Date/Time
CST
Temp
°C
App
Temp
°C
Dew
Point
°C
Rel
Hum
%
Delta-T
°C
Wind Press
QNH
hPa
Press
MSL
hPa
Rain since
9am
mm
Dir  Spd
km/h
Gust
km/h
Spd
kts
Gust
kts
18/11:30pm 15.3 13.3 11.5 78 2.0 NW 13 19 7 10 1022.2 1022.1 0.0
18/11:00pm 14.5 13.2 10.1 75 2.3 NE 7 9 4 5 1022.4 1022.3 0.0
18/10:30pm 14.2 12.8 9.6 74 2.4 ENE 7 9 4 5 1022.7 1022.6 0.0
18/10:00pm 14.4 12.7 9.8 74 2.4 NNE 9 11 5 6 1022.6 1022.5 0.0
18/09:30pm 13.8 12.5 10.0 78 2.0 N 7 9 4 5 1022.8 1022.7 0.0
18/09:00pm 13.2 12.0 10.2 82 1.5 NNE 7 9 4 5 1022.8 1022.7 0.0
18/08:30pm 11.8 10.0 8.1 78 1.8 ENE 7 9 4 5 1022.8 1022.7 0.0
18/08:00pm 12.3 10.5 7.8 74 2.2 ENE 7 9 4 5 1023.1 1023.0 0.0
18/07:30pm 14.0 12.5 8.6 70 2.7 S 6 7 3 4 1023.3 1023.2 0.0
18/07:00pm 13.7 12.0 7.5 66 3.0 WSW 6 7 3 4 1023.5 1023.4 0.0
18/06:30pm 15.8 13.7 8.1 60 3.9 WSW 9 11 5 6 1023.3 1023.2 0.0
18/06:00pm 17.3 14.7 7.9 54 4.7 WSW 11 15 6 8 1023.0 1022.9 0.0
18/05:30pm 17.8 15.1 7.2 50 5.3 SW 11 15 6 8 1023.1 1023.0 0.0
18/05:00pm 18.4 15.1 6.3 45 6.0 WSW 13 17 7 9 1023.1 1023.0 0.0
18/04:30pm 18.4 15.3 7.2 48 5.6 SW 13 19 7 10 1023.0 1022.9 0.0
18/04:00pm 18.7 16.8 8.9 53 5.1 SSW 9 15 5 8 1023.0 1022.9 0.0
18/03:30pm 18.9 16.1 8.6 51 5.3 S 13 22 7 12 1023.2 1023.1 0.0
18/03:00pm 19.5 16.7 8.5 49 5.7 SW 13 20 7 11 1023.2 1023.1 0.0
18/02:30pm 18.9 17.0 9.1 53 5.1 WSW 9 19 5 10 1023.4 1023.3 0.0
18/02:00pm 18.5 15.3 8.5 52 5.2 WSW 15 20 8 11 1023.8 1023.7 0.0
18/01:30pm 18.1 14.7 9.2 56 4.6 W 17 22 9 12 1024.0 1023.9 0.0
18/01:00pm 18.3 14.8 10.9 62 4.0 WNW 20 26 11 14 1024.3 1024.2 0.0
18/12:30pm 18.6 16.2 9.9 57 4.6 NW 13 17 7 9 1024.6 1024.5 0.0
18/12:00pm 17.8 15.6 10.9 64 3.7 WNW 13 17 7 9 1025.3 1025.2 0.0
18/11:30am 17.6 17.6 11.2 66 3.4 NW 2 11 1 6 1025.7 1025.6 0.0
18/11:00am 17.0 16.1 11.5 70 3.0 NNW 7 11 4 6 1025.9 1025.8 0.0
18/10:30am 16.5 16.0 12.1 75 2.4 N 6 11 3 6 1026.2 1026.1 0.0
18/10:00am 15.6 15.4 13.1 85 1.4 NNW 6 7 3 4 1026.4 1026.3 0.0
18/09:30am 15.0 15.2 14.2 95 0.4 NNE 6 9 3 5 1026.7 1026.6 0.0
18/09:00am 14.3 13.2 14.3 100 0.0 NE 13 19 7 10 1026.4 1026.3 1.6
18/08:45am 14.1 12.6 14.1 100 0.0 NE 15 19 8 10 1026.5 1026.4 1.6
18/08:30am 13.5 12.1 13.5 100 0.0 NE 13 17 7 9 1026.8 1026.7 1.6
18/08:00am 13.4 13.1 13.4 100 0.0 NNE 7 9 4 5 1026.9 1026.8 1.0
18/07:38am 13.6 13.6 13.6 100 0.0 NW 6 6 3 3 1026.7 1026.6 0.8
18/07:30am 13.8 13.9 13.8 100 0.0 NW 6 7 3 4 1026.6 1026.5 0.6
18/07:00am 13.7 13.4 13.4 98 0.2 NNE 7 11 4 6 1026.2 1026.1 0.6
18/06:30am 13.6 12.6 13.4 99 0.1 NNE 11 13 6 7 1026.0 1025.9 0.6
18/06:00am 13.7 12.5 12.9 95 0.4 N 11 13 6 7 1026.1 1026.0 0.6
18/05:30am 13.7 13.6 13.4 98 0.2 NNE 6 9 3 5 1026.0 1025.9 0.6
18/05:00am 13.8 13.3 13.8 100 0.0 N 9 13 5 7 1025.9 1025.8 0.6
18/04:30am 13.9 14.0 13.9 100 0.0 NE 6 9 3 5 1026.0 1025.9 0.6
18/04:00am 13.9 13.1 13.9 100 0.0 NNE 11 13 6 7 1025.9 1025.8 0.6
18/03:30am 14.0 13.6 14.0 100 0.0 ENE 9 11 5 6 1026.0 1025.9 0.6
18/03:00am 14.1 13.5 13.6 97 0.3 NE 9 15 5 8 1026.0 1025.9 0.6
18/02:30am 14.3 13.4 12.5 89 1.0 E 9 13 5 7 1026.3 1026.2 0.4
18/02:00am 14.5 13.9 13.4 93 0.6 NE 9 13 5 7 1026.4 1026.3 0.2
18/01:30am 14.7 13.6 11.8 83 1.6 NNE 9 11 5 6 1026.5 1026.4 0.2
18/01:00am 15.3 14.0 11.3 77 2.1 NE 9 11 5 6 1026.7 1026.6 0.0
18/12:30am 14.9 13.9 11.1 78 2.0 NE 7 9 4 5 1026.8 1026.7 0.0
18/12:00am 14.9 13.9 11.1 78 2.0 NE 7 7 4 4 1026.9 1026.8 0.0
 
Date/Time
CST
Temp
°C
App
Temp
°C
Dew
Point
°C
Rel
Hum
%
Delta-T
°C
Wind Press
QNH
hPa
Press
MSL
hPa
Rain since
9am
mm
Dir  Spd
km/h
Gust
km/h
Spd
kts
Gust
kts
17/11:30pm 14.9 15.3 11.1 78 2.0 CALM 0 0 0 0 1027.0 1026.9 0.0
17/11:00pm 15.3 14.4 11.5 78 2.0 W 7 9 4 5 1027.4 1027.3 0.0
17/10:30pm 15.4 13.2 12.0 80 1.8 WSW 15 20 8 11 1027.6 1027.5 0.0
17/10:00pm 14.5 13.7 9.5 72 2.6 SSW 4 6 2 3 1027.6 1027.5 0.0
17/09:30pm 14.4 13.0 9.4 72 2.5 SSW 7 7 4 4 1027.6 1027.5 0.0
17/09:00pm 14.5 13.4 8.5 67 3.0 ESE 4 7 2 4 1027.6 1027.5 0.0
17/08:30pm 15.3 13.4 9.0 66 3.2 SSW 9 11 5 6 1027.7 1027.6 0.0
17/08:00pm 16.2 14.4 9.4 64 3.5 S 9 11 5 6 1027.7 1027.6 0.0
17/07:30pm 16.5 14.1 8.5 59 4.1 S 11 15 6 8 1027.8 1027.7 0.0
17/07:00pm 16.7 13.8 8.1 57 4.4 SSW 13 20 7 11 1027.7 1027.6 0.0
17/06:30pm 16.8 13.9 8.2 57 4.3 SSW 13 19 7 10 1027.6 1027.5 0.0
17/06:00pm 16.9 13.6 8.1 56 4.4 SSW 15 20 8 11 1027.4 1027.3 0.0
17/05:30pm 17.0 13.2 7.6 54 4.7 SSW 17 22 9 12 1027.2 1027.1 0.0

Other formats

Comma delimited format used in spreadsheet applications
http://www.bom.gov.au/fwo/IDS60801/IDS60801.95677.axf

JavaScript Object Notation format (JSON) in row-major order
http://www.bom.gov.au/fwo/IDS60801/IDS60801.95677.json

Data quality

Most of these data are generated automatically and are frequently updated. Quality checks on data are not normally performed. It is possible for incorrect values to appear. Refer to information at About Latest Weather Observations and please check the disclaimer before using these data.